Forside
METAR-TAF:

METAR-TAF

Lufthavne :

Grinnell, Iowa, USA

Breddekreds: 41-42-35N, længdekreds: 092-44-09W, højde: 307 m

Aktuelle vejr

Denne rapport blev lavet for 13 minutter siden, kl. 03:35 UTC
Vind 3 kt fra sydvest
Temperatur -12°C
Fugtighed 85%
Tryk 1027 hPa
Sigt: 16.1 km
Brudte skyer i en højde af 10000 ft

METAR: KGGI 110335Z AUTO 22003KT 10SM BKN100 M12/M14 A3032 RMK AO2 T11171136

Tid: 21:48 (03:48 UTC)


TAF: fraværende

Vejrobservationer og prognoser fra mere end 4000 lufthavne (METAR og TAF).

De gule og røde prikker repræsenterer de meteorologiske stationer.

Flyt musen over at se navnet på stationen.

Så klik over at se vejr observationer og prognoser.

At skifte det kort: Klik på de grønne knapper med et sort kors for at zoome ind; på den grønne knap med en bindestreg for at zoome ud; eller på de grønne pile for tilstødende kort.


METAR-TAF: